sensor_id;sensor_type;location;lat;lon;timestamp;pressure;altitude;pressure_sealevel;temperature;humidity
17635;BME280;8936;49.010;12.120;2022-10-29T00:01:33;98749.28;;;15.57;100.00
17635;BME280;8936;49.010;12.120;2022-10-29T00:04:00;98754.94;;;15.60;100.00
17635;BME280;8936;49.010;12.120;2022-10-29T00:06:26;98747.16;;;15.59;100.00
17635;BME280;8936;49.010;12.120;2022-10-29T00:08:52;98741.22;;;15.47;100.00
17635;BME280;8936;49.010;12.120;2022-10-29T00:11:19;98753.38;;;15.49;100.00
17635;BME280;8936;49.010;12.120;2022-10-29T00:13:47;98744.47;;;15.44;100.00
17635;BME280;8936;49.010;12.120;2022-10-29T00:16:15;98742.56;;;15.44;100.00
17635;BME280;8936;49.010;12.120;2022-10-29T00:18:42;98744.22;;;15.40;100.00
17635;BME280;8936;49.010;12.120;2022-10-29T00:21:09;98749.94;;;15.03;100.00
17635;BME280;8936;49.010;12.120;2022-10-29T00:23:36;98748.31;;;14.92;100.00
17635;BME280;8936;49.010;12.120;2022-10-29T00:26:03;98746.97;;;15.00;100.00
17635;BME280;8936;49.010;12.120;2022-10-29T00:28:29;98751.53;;;15.09;100.00
17635;BME280;8936;49.010;12.120;2022-10-29T00:30:55;98755.84;;;15.05;100.00
17635;BME280;8936;49.010;12.120;2022-10-29T00:33:23;98744.56;;;14.93;100.00
17635;BME280;8936;49.010;12.120;2022-10-29T00:35:53;98745.38;;;14.99;100.00
17635;BME280;8936;49.010;12.120;2022-10-29T00:38:20;98747.22;;;15.08;100.00
17635;BME280;8936;49.010;12.120;2022-10-29T00:40:46;98742.38;;;15.16;100.00
17635;BME280;8936;49.010;12.120;2022-10-29T00:43:12;98746.38;;;15.23;100.00
17635;BME280;8936;49.010;12.120;2022-10-29T00:45:39;98736.97;;;15.26;100.00
17635;BME280;8936;49.010;12.120;2022-10-29T00:48:06;98743.41;;;15.30;100.00
17635;BME280;8936;49.010;12.120;2022-10-29T00:50:33;98756.06;;;15.29;100.00
17635;BME280;8936;49.010;12.120;2022-10-29T00:53:00;98751.50;;;15.35;100.00
17635;BME280;8936;49.010;12.120;2022-10-29T00:55:27;98768.44;;;15.35;100.00
17635;BME280;8936;49.010;12.120;2022-10-29T00:57:53;98762.00;;;15.26;100.00
17635;BME280;8936;49.010;12.120;2022-10-29T01:00:20;98764.97;;;15.35;100.00
17635;BME280;8936;49.010;12.120;2022-10-29T01:02:47;98753.94;;;15.31;100.00
17635;BME280;8936;49.010;12.120;2022-10-29T01:05:14;98761.47;;;15.34;100.00
17635;BME280;8936;49.010;12.120;2022-10-29T01:07:43;98750.69;;;15.34;100.00
17635;BME280;8936;49.010;12.120;2022-10-29T01:10:09;98756.63;;;15.21;100.00
17635;BME280;8936;49.010;12.120;2022-10-29T01:12:43;98753.41;;;15.19;100.00
17635;BME280;8936;49.010;12.120;2022-10-29T01:15:15;98741.84;;;15.19;100.00
17635;BME280;8936;49.010;12.120;2022-10-29T01:17:46;98764.19;;;15.19;100.00
17635;BME280;8936;49.010;12.120;2022-10-29T01:20:21;98755.28;;;15.19;100.00
17635;BME280;8936;49.010;12.120;2022-10-29T01:22:58;98755.81;;;15.21;100.00
17635;BME280;8936;49.010;12.120;2022-10-29T01:25:35;98763.38;;;15.19;100.00
17635;BME280;8936;49.010;12.120;2022-10-29T01:28:08;98755.81;;;15.21;100.00
17635;BME280;8936;49.010;12.120;2022-10-29T01:30:49;98751.53;;;15.14;100.00
17635;BME280;8936;49.010;12.120;2022-10-29T01:33:19;98757.44;;;15.22;100.00
17635;BME280;8936;49.010;12.120;2022-10-29T01:35:49;98755.28;;;15.13;100.00
17635;BME280;8936;49.010;12.120;2022-10-29T01:38:23;98750.44;;;15.10;100.00
17635;BME280;8936;49.010;12.120;2022-10-29T01:40:54;98755.84;;;15.10;100.00
17635;BME280;8936;49.010;12.120;2022-10-29T01:43:23;98766.59;;;15.16;100.00
17635;BME280;8936;49.010;12.120;2022-10-29T01:45:54;98756.09;;;15.14;100.00
17635;BME280;8936;49.010;12.120;2022-10-29T01:48:25;98756.09;;;15.14;100.00
17635;BME280;8936;49.010;12.120;2022-10-29T01:50:53;98759.88;;;15.18;100.00
17635;BME280;8936;49.010;12.120;2022-10-29T01:53:23;98753.16;;;15.16;100.00
17635;BME280;8936;49.010;12.120;2022-10-29T01:55:50;98751.50;;;15.20;100.00
17635;BME280;8936;49.010;12.120;2022-10-29T01:58:16;98748.03;;;15.09;100.00
17635;BME280;8936;49.010;12.120;2022-10-29T02:00:46;98756.63;;;15.11;100.00
17635;BME280;8936;49.010;12.120;2022-10-29T02:03:19;98751.28;;;15.06;100.00
17635;BME280;8936;49.010;12.120;2022-10-29T02:05:51;98746.16;;;15.04;100.00
17635;BME280;8936;49.010;12.120;2022-10-29T02:08:23;98743.19;;;15.11;100.00
17635;BME280;8936;49.010;12.120;2022-10-29T02:10:55;98743.47;;;15.09;100.00
17635;BME280;8936;49.010;12.120;2022-10-29T02:13:23;98744.03;;;15.06;100.00
17635;BME280;8936;49.010;12.120;2022-10-29T02:15:53;98741.31;;;15.11;100.00
17635;BME280;8936;49.010;12.120;2022-10-29T02:18:23;98745.06;;;15.10;100.00
17635;BME280;8936;49.010;12.120;2022-10-29T02:20:49;98739.13;;;15.13;100.00
17635;BME280;8936;49.010;12.120;2022-10-29T02:23:16;98738.09;;;15.09;100.00
17635;BME280;8936;49.010;12.120;2022-10-29T02:25:42;98737.00;;;15.10;100.00
17635;BME280;8936;49.010;12.120;2022-10-29T02:28:08;98737.81;;;15.06;100.00
17635;BME280;8936;49.010;12.120;2022-10-29T02:30:35;98738.66;;;14.96;100.00
17635;BME280;8936;49.010;12.120;2022-10-29T02:33:01;98728.69;;;14.92;100.00
17635;BME280;8936;49.010;12.120;2022-10-29T02:35:29;98719.84;;;14.81;100.00
17635;BME280;8936;49.010;12.120;2022-10-29T02:37:55;98713.13;;;14.64;100.00
17635;BME280;8936;49.010;12.120;2022-10-29T02:40:21;98710.44;;;14.53;100.00
17635;BME280;8936;49.010;12.120;2022-10-29T02:42:48;98700.50;;;14.59;100.00
17635;BME280;8936;49.010;12.120;2022-10-29T02:45:14;98706.41;;;14.66;100.00
17635;BME280;8936;49.010;12.120;2022-10-29T02:47:40;98703.19;;;14.59;100.00
17635;BME280;8936;49.010;12.120;2022-10-29T02:50:07;98700.47;;;14.34;100.00
17635;BME280;8936;49.010;12.120;2022-10-29T02:52:35;98700.72;;;14.27;100.00
17635;BME280;8936;49.010;12.120;2022-10-29T02:55:01;98702.59;;;14.32;100.00
17635;BME280;8936;49.010;12.120;2022-10-29T02:57:28;98695.34;;;14.32;100.00
17635;BME280;8936;49.010;12.120;2022-10-29T02:59:54;98699.69;;;14.38;100.00
17635;BME280;8936;49.010;12.120;2022-10-29T03:02:20;98711.22;;;14.49;100.00
17635;BME280;8936;49.010;12.120;2022-10-29T03:04:46;98710.44;;;14.58;100.00
17635;BME280;8936;49.010;12.120;2022-10-29T03:07:13;98711.22;;;14.64;100.00
17635;BME280;8936;49.010;12.120;2022-10-29T03:09:40;98712.84;;;14.65;100.00
17635;BME280;8936;49.010;12.120;2022-10-29T03:12:07;98716.09;;;14.72;100.00
17635;BME280;8936;49.010;12.120;2022-10-29T03:14:33;98714.97;;;14.83;100.00
17635;BME280;8936;49.010;12.120;2022-10-29T03:16:59;98712.31;;;14.88;100.00
17635;BME280;8936;49.010;12.120;2022-10-29T03:19:26;98721.47;;;14.82;100.00
17635;BME280;8936;49.010;12.120;2022-10-29T03:21:52;98707.72;;;14.84;100.00
17635;BME280;8936;49.010;12.120;2022-10-29T03:24:18;98712.06;;;14.70;100.00
17635;BME280;8936;49.010;12.120;2022-10-29T03:26:46;98706.66;;;14.49;100.00
17635;BME280;8936;49.010;12.120;2022-10-29T03:29:12;98697.75;;;14.19;100.00
17635;BME280;8936;49.010;12.120;2022-10-29T03:31:39;98709.00;;;14.00;100.00
17635;BME280;8936;49.010;12.120;2022-10-29T03:34:05;98708.50;;;14.14;100.00
17635;BME280;8936;49.010;12.120;2022-10-29T03:36:31;98711.19;;;14.19;100.00
17635;BME280;8936;49.010;12.120;2022-10-29T03:38:58;98698.00;;;14.12;100.00
17635;BME280;8936;49.010;12.120;2022-10-29T03:41:24;98706.09;;;14.22;100.00
17635;BME280;8936;49.010;12.120;2022-10-29T03:43:52;98704.47;;;14.31;100.00
17635;BME280;8936;49.010;12.120;2022-10-29T03:46:18;98708.28;;;14.40;100.00
17635;BME280;8936;49.010;12.120;2022-10-29T03:48:47;98702.09;;;14.40;100.00
17635;BME280;8936;49.010;12.120;2022-10-29T03:51:14;98712.88;;;14.45;100.00
17635;BME280;8936;49.010;12.120;2022-10-29T03:53:40;98723.31;;;14.51;100.00
17635;BME280;8936;49.010;12.120;2022-10-29T03:56:08;98724.16;;;14.57;100.00
17635;BME280;8936;49.010;12.120;2022-10-29T03:58:34;98717.16;;;14.56;100.00
17635;BME280;8936;49.010;12.120;2022-10-29T04:01:03;98718.22;;;14.55;100.00
17635;BME280;8936;49.010;12.120;2022-10-29T04:03:30;98718.25;;;14.60;100.00
17635;BME280;8936;49.010;12.120;2022-10-29T04:05:57;98720.38;;;14.58;100.00
17635;BME280;8936;49.010;12.120;2022-10-29T04:08:24;98728.97;;;14.50;100.00
17635;BME280;8936;49.010;12.120;2022-10-29T04:10:51;98731.41;;;14.41;100.00
17635;BME280;8936;49.010;12.120;2022-10-29T04:13:17;98721.38;;;14.12;100.00
17635;BME280;8936;49.010;12.120;2022-10-29T04:15:44;98731.03;;;14.18;100.00
17635;BME280;8936;49.010;12.120;2022-10-29T04:18:12;98729.72;;;14.15;100.00
17635;BME280;8936;49.010;12.120;2022-10-29T04:20:38;98734.81;;;14.06;100.00
17635;BME280;8936;49.010;12.120;2022-10-29T04:23:05;98736.91;;;13.94;100.00
17635;BME280;8936;49.010;12.120;2022-10-29T04:25:31;98731.31;;;14.01;100.00
17635;BME280;8936;49.010;12.120;2022-10-29T04:27:58;98734.00;;;14.16;100.00
17635;BME280;8936;49.010;12.120;2022-10-29T04:30:24;98732.13;;;14.27;100.00
17635;BME280;8936;49.010;12.120;2022-10-29T04:32:54;98734.03;;;14.26;100.00
17635;BME280;8936;49.010;12.120;2022-10-29T04:35:22;98722.72;;;14.09;100.00
17635;BME280;8936;49.010;12.120;2022-10-29T04:37:48;98717.59;;;13.92;100.00
17635;BME280;8936;49.010;12.120;2022-10-29T04:40:14;98721.59;;;13.85;100.00
17635;BME280;8936;49.010;12.120;2022-10-29T04:42:41;98734.22;;;13.99;100.00
17635;BME280;8936;49.010;12.120;2022-10-29T04:45:08;98733.72;;;14.13;100.00
17635;BME280;8936;49.010;12.120;2022-10-29T04:47:35;98741.00;;;14.22;100.00
17635;BME280;8936;49.010;12.120;2022-10-29T04:50:02;98737.50;;;14.27;100.00
17635;BME280;8936;49.010;12.120;2022-10-29T04:52:29;98735.09;;;14.30;100.00
17635;BME280;8936;49.010;12.120;2022-10-29T04:54:56;98730.84;;;14.34;100.00
17635;BME280;8936;49.010;12.120;2022-10-29T04:57:22;98734.25;;;14.10;100.00
17635;BME280;8936;49.010;12.120;2022-10-29T04:59:49;98737.19;;;14.08;100.00
17635;BME280;8936;49.010;12.120;2022-10-29T05:02:16;98731.53;;;13.94;100.00
17635;BME280;8936;49.010;12.120;2022-10-29T05:04:42;98731.50;;;13.84;100.00
17635;BME280;8936;49.010;12.120;2022-10-29T05:07:09;98729.09;;;13.88;100.00
17635;BME280;8936;49.010;12.120;2022-10-29T05:09:37;98728.34;;;13.97;100.00
17635;BME280;8936;49.010;12.120;2022-10-29T05:12:05;98732.06;;;13.86;100.00
17635;BME280;8936;49.010;12.120;2022-10-29T05:14:32;98728.31;;;13.92;100.00
17635;BME280;8936;49.010;12.120;2022-10-29T05:16:58;98733.69;;;14.02;100.00
17635;BME280;8936;49.010;12.120;2022-10-29T05:19:24;98729.97;;;14.08;100.00
17635;BME280;8936;49.010;12.120;2022-10-29T05:21:50;98735.88;;;14.16;100.00
17635;BME280;8936;49.010;12.120;2022-10-29T05:24:17;98734.28;;;14.20;100.00
17635;BME280;8936;49.010;12.120;2022-10-29T05:26:45;98733.72;;;14.18;100.00
17635;BME280;8936;49.010;12.120;2022-10-29T05:29:11;98737.75;;;14.10;100.00
17635;BME280;8936;49.010;12.120;2022-10-29T05:31:39;98739.59;;;13.99;100.00
17635;BME280;8936;49.010;12.120;2022-10-29T05:34:09;98732.06;;;13.91;100.00
17635;BME280;8936;49.010;12.120;2022-10-29T05:36:37;98731.50;;;13.84;100.00
17635;BME280;8936;49.010;12.120;2022-10-29T05:39:05;98728.81;;;13.79;100.00
17635;BME280;8936;49.010;12.120;2022-10-29T05:41:33;98732.56;;;13.78;100.00
17635;BME280;8936;49.010;12.120;2022-10-29T05:44:04;98743.91;;;13.95;100.00
17635;BME280;8936;49.010;12.120;2022-10-29T05:46:32;98739.34;;;14.06;100.00
17635;BME280;8936;49.010;12.120;2022-10-29T05:49:02;98732.09;;;14.12;100.00
17635;BME280;8936;49.010;12.120;2022-10-29T05:51:30;98751.75;;;14.17;100.00
17635;BME280;8936;49.010;12.120;2022-10-29T05:53:58;98738.84;;;14.14;100.00
17635;BME280;8936;49.010;12.120;2022-10-29T05:56:27;98736.94;;;14.10;100.00
17635;BME280;8936;49.010;12.120;2022-10-29T05:58:55;98739.63;;;14.04;100.00
17635;BME280;8936;49.010;12.120;2022-10-29T06:01:23;98747.44;;;14.11;100.00
17635;BME280;8936;49.010;12.120;2022-10-29T06:03:49;98744.47;;;14.18;100.00
17635;BME280;8936;49.010;12.120;2022-10-29T06:06:16;98742.34;;;14.25;100.00
17635;BME280;8936;49.010;12.120;2022-10-29T06:08:42;98748.00;;;14.28;100.00
17635;BME280;8936;49.010;12.120;2022-10-29T06:11:08;98749.31;;;14.11;100.00
17635;BME280;8936;49.010;12.120;2022-10-29T06:13:35;98755.22;;;14.13;100.00
17635;BME280;8936;49.010;12.120;2022-10-29T06:16:01;98764.38;;;14.22;100.00
17635;BME280;8936;49.010;12.120;2022-10-29T06:18:29;98759.81;;;14.27;100.00
17635;BME280;8936;49.010;12.120;2022-10-29T06:20:56;98762.78;;;14.26;100.00
17635;BME280;8936;49.010;12.120;2022-10-29T06:23:22;98761.16;;;14.30;100.00
17635;BME280;8936;49.010;12.120;2022-10-29T06:25:49;98765.75;;;14.29;100.00
17635;BME280;8936;49.010;12.120;2022-10-29T06:28:15;98764.13;;;14.28;100.00
17635;BME280;8936;49.010;12.120;2022-10-29T06:30:44;98773.31;;;14.37;100.00
17635;BME280;8936;49.010;12.120;2022-10-29T06:33:11;98780.03;;;14.40;100.00
17635;BME280;8936;49.010;12.120;2022-10-29T06:35:39;98770.09;;;14.35;100.00
17635;BME280;8936;49.010;12.120;2022-10-29T06:38:05;98767.94;;;14.37;100.00
17635;BME280;8936;49.010;12.120;2022-10-29T06:40:31;98764.91;;;14.24;100.00
17635;BME280;8936;49.010;12.120;2022-10-29T06:42:58;98774.84;;;14.18;100.00
17635;BME280;8936;49.010;12.120;2022-10-29T06:45:25;98775.63;;;14.08;100.00
17635;BME280;8936;49.010;12.120;2022-10-29T06:47:51;98780.75;;;14.10;100.00
17635;BME280;8936;49.010;12.120;2022-10-29T06:50:17;98776.91;;;13.96;100.00
17635;BME280;8936;49.010;12.120;2022-10-29T06:52:51;98777.19;;;13.94;100.00
17635;BME280;8936;49.010;12.120;2022-10-29T06:55:18;98785.25;;;13.94;100.00
17635;BME280;8936;49.010;12.120;2022-10-29T06:57:44;98788.75;;;14.00;100.00
17635;BME280;8936;49.010;12.120;2022-10-29T07:00:11;98788.53;;;14.06;100.00
17635;BME280;8936;49.010;12.120;2022-10-29T07:02:37;98792.03;;;14.12;100.00
17635;BME280;8936;49.010;12.120;2022-10-29T07:05:04;98786.41;;;14.14;100.00
17635;BME280;8936;49.010;12.120;2022-10-29T07:07:30;98783.69;;;14.08;100.00
17635;BME280;8936;49.010;12.120;2022-10-29T07:09:58;98774.81;;;14.03;100.00
17635;BME280;8936;49.010;12.120;2022-10-29T07:12:24;98779.56;;;13.81;100.00
17635;BME280;8936;49.010;12.120;2022-10-29T07:14:50;98780.59;;;13.70;100.00
17635;BME280;8936;49.010;12.120;2022-10-29T07:17:17;98792.38;;;13.64;100.00
17635;BME280;8936;49.010;12.120;2022-10-29T07:19:43;98794.69;;;13.50;100.00
17635;BME280;8936;49.010;12.120;2022-10-29T07:22:10;98787.22;;;13.52;100.00
17635;BME280;8936;49.010;12.120;2022-10-29T07:24:36;98787.97;;;13.42;100.00
17635;BME280;8936;49.010;12.120;2022-10-29T07:27:04;98792.47;;;13.37;100.00
17635;BME280;8936;49.010;12.120;2022-10-29T07:29:31;98799.69;;;13.31;100.00
17635;BME280;8936;49.010;12.120;2022-10-29T07:31:57;98801.28;;;13.27;100.00
17635;BME280;8936;49.010;12.120;2022-10-29T07:34:23;98801.56;;;13.31;100.00
17635;BME280;8936;49.010;12.120;2022-10-29T07:36:50;98806.16;;;13.30;100.00
17635;BME280;8936;49.010;12.120;2022-10-29T07:39:16;98795.94;;;13.27;100.00
17635;BME280;8936;49.010;12.120;2022-10-29T07:41:42;98794.59;;;13.30;100.00
17635;BME280;8936;49.010;12.120;2022-10-29T07:44:10;98803.63;;;13.19;100.00
17635;BME280;8936;49.010;12.120;2022-10-29T07:46:36;98795.06;;;13.22;100.00
17635;BME280;8936;49.010;12.120;2022-10-29T07:49:03;98802.59;;;13.25;100.00
17635;BME280;8936;49.010;12.120;2022-10-29T07:51:29;98794.81;;;13.23;100.00
17635;BME280;8936;49.010;12.120;2022-10-29T07:53:55;98802.25;;;13.11;100.00
17635;BME280;8936;49.010;12.120;2022-10-29T07:56:22;98802.03;;;13.18;100.00
17635;BME280;8936;49.010;12.120;2022-10-29T07:58:48;98799.28;;;13.13;100.00
17635;BME280;8936;49.010;12.120;2022-10-29T08:01:16;98806.28;;;13.14;100.00
17635;BME280;8936;49.010;12.120;2022-10-29T08:03:42;98802.84;;;13.18;100.00
17635;BME280;8936;49.010;12.120;2022-10-29T08:06:08;98804.22;;;13.26;100.00
17635;BME280;8936;49.010;12.120;2022-10-29T08:08:35;98806.69;;;13.32;100.00
17635;BME280;8936;49.010;12.120;2022-10-29T08:11:02;98812.63;;;13.39;100.00
17635;BME280;8936;49.010;12.120;2022-10-29T08:13:28;98814.22;;;13.40;100.00
17635;BME280;8936;49.010;12.120;2022-10-29T08:15:55;98800.59;;;13.47;100.00
17635;BME280;8936;49.010;12.120;2022-10-29T08:18:23;98802.81;;;13.55;100.00
17635;BME280;8936;49.010;12.120;2022-10-29T08:20:49;98801.44;;;13.52;100.00
17635;BME280;8936;49.010;12.120;2022-10-29T08:23:15;98794.25;;;13.63;100.00
17635;BME280;8936;49.010;12.120;2022-10-29T08:25:42;98791.06;;;13.71;100.00
17635;BME280;8936;49.010;12.120;2022-10-29T08:28:09;98789.47;;;13.70;100.00
17635;BME280;8936;49.010;12.120;2022-10-29T08:30:36;98791.56;;;13.68;100.00
17635;BME280;8936;49.010;12.120;2022-10-29T08:33:03;98787.84;;;13.74;100.00
17635;BME280;8936;49.010;12.120;2022-10-29T08:35:31;98797.56;;;13.85;100.00
17635;BME280;8936;49.010;12.120;2022-10-29T08:37:58;98795.69;;;13.86;100.00
17635;BME280;8936;49.010;12.120;2022-10-29T08:40:29;98794.31;;;13.83;100.00
17635;BME280;8936;49.010;12.120;2022-10-29T08:43:10;98796.50;;;13.86;100.00
17635;BME280;8936;49.010;12.120;2022-10-29T08:45:43;98791.63;;;13.83;100.00
17635;BME280;8936;49.010;12.120;2022-10-29T08:48:15;98800.50;;;13.84;100.00
17635;BME280;8936;49.010;12.120;2022-10-29T08:50:47;98796.94;;;13.68;100.00
17635;BME280;8936;49.010;12.120;2022-10-29T08:53:15;98799.31;;;13.60;100.00
17635;BME280;8936;49.010;12.120;2022-10-29T08:55:42;98795.81;;;13.59;100.00
17635;BME280;8936;49.010;12.120;2022-10-29T08:58:10;98797.19;;;13.62;100.00
17635;BME280;8936;49.010;12.120;2022-10-29T09:00:39;98794.81;;;13.70;100.00
17635;BME280;8936;49.010;12.120;2022-10-29T09:03:07;98787.84;;;13.74;100.00
17635;BME280;8936;49.010;12.120;2022-10-29T09:05:37;98790.00;;;13.77;100.00
17635;BME280;8936;49.010;12.120;2022-10-29T09:08:16;98783.84;;;13.77;100.00
17635;BME280;8936;49.010;12.120;2022-10-29T09:10:49;98780.88;;;13.78;100.00
17635;BME280;8936;49.010;12.120;2022-10-29T09:13:22;98787.34;;;13.82;100.00
17635;BME280;8936;49.010;12.120;2022-10-29T09:15:57;98790.28;;;13.81;100.00
17635;BME280;8936;49.010;12.120;2022-10-29T09:18:28;98789.00;;;13.88;100.00
17635;BME280;8936;49.010;12.120;2022-10-29T09:20:59;98794.41;;;13.98;100.00
17635;BME280;8936;49.010;12.120;2022-10-29T09:23:29;98791.19;;;14.06;100.00
17635;BME280;8936;49.010;12.120;2022-10-29T09:26:00;98797.63;;;14.05;100.00
17635;BME280;8936;49.010;12.120;2022-10-29T09:28:31;98798.69;;;13.99;100.00
17635;BME280;8936;49.010;12.120;2022-10-29T09:31:01;98789.03;;;14.03;100.00
17635;BME280;8936;49.010;12.120;2022-10-29T09:33:30;98790.44;;;14.11;100.00
17635;BME280;8936;49.010;12.120;2022-10-29T09:35:57;98791.22;;;14.12;100.00
17635;BME280;8936;49.010;12.120;2022-10-29T09:38:25;98789.91;;;14.14;100.00
17635;BME280;8936;49.010;12.120;2022-10-29T09:40:56;98794.22;;;14.20;100.00
17635;BME280;8936;49.010;12.120;2022-10-29T09:43:27;98794.22;;;14.20;100.00
17635;BME280;8936;49.010;12.120;2022-10-29T09:45:59;98796.38;;;14.28;100.00
17635;BME280;8936;49.010;12.120;2022-10-29T09:48:29;98787.50;;;14.28;100.00
17635;BME280;8936;49.010;12.120;2022-10-29T09:51:00;98787.50;;;14.28;100.00
17635;BME280;8936;49.010;12.120;2022-10-29T09:53:31;98788.38;;;14.43;100.00
17635;BME280;8936;49.010;12.120;2022-10-29T09:55:59;98791.06;;;14.48;100.00
17635;BME280;8936;49.010;12.120;2022-10-29T09:58:26;98788.38;;;14.48;100.00
17635;BME280;8936;49.010;12.120;2022-10-29T10:00:53;98785.16;;;14.56;100.00
17635;BME280;8936;49.010;12.120;2022-10-29T10:03:21;98785.69;;;14.48;100.00
17635;BME280;8936;49.010;12.120;2022-10-29T10:05:55;98790.00;;;14.54;100.00
17635;BME280;8936;49.010;12.120;2022-10-29T10:08:22;98790.53;;;14.51;100.00
17635;BME280;8936;49.010;12.120;2022-10-29T10:10:49;98784.91;;;14.48;100.00
17635;BME280;8936;49.010;12.120;2022-10-29T10:13:20;98784.38;;;14.51;100.00
17635;BME280;8936;49.010;12.120;2022-10-29T10:15:48;98779.25;;;14.59;100.00
17635;BME280;8936;49.010;12.120;2022-10-29T10:18:16;98780.88;;;14.61;100.00
17635;BME280;8936;49.010;12.120;2022-10-29T10:20:44;98783.81;;;14.64;100.00
17635;BME280;8936;49.010;12.120;2022-10-29T10:23:18;98778.72;;;14.57;100.00
17635;BME280;8936;49.010;12.120;2022-10-29T10:25:45;98766.63;;;14.70;100.00
17635;BME280;8936;49.010;12.120;2022-10-29T10:28:15;98765.28;;;14.83;100.00
17635;BME280;8936;49.010;12.120;2022-10-29T10:30:44;98757.50;;;14.91;100.00
17635;BME280;8936;49.010;12.120;2022-10-29T10:33:11;98759.63;;;14.89;100.00
17635;BME280;8936;49.010;12.120;2022-10-29T10:35:46;98763.41;;;14.93;100.00
17635;BME280;8936;49.010;12.120;2022-10-29T10:38:13;98755.59;;;14.97;100.00
17635;BME280;8936;49.010;12.120;2022-10-29T10:40:40;98743.72;;;15.08;100.00
17635;BME280;8936;49.010;12.120;2022-10-29T10:43:12;98749.13;;;15.13;100.00
17635;BME280;8936;49.010;12.120;2022-10-29T10:45:44;98736.47;;;15.19;100.00
17635;BME280;8936;49.010;12.120;2022-10-29T10:48:17;98738.06;;;15.25;100.00
17635;BME280;8936;49.010;12.120;2022-10-29T10:50:43;98742.88;;;15.38;100.00
17635;BME280;8936;49.010;12.120;2022-10-29T10:53:14;98729.66;;;15.41;100.00
17635;BME280;8936;49.010;12.120;2022-10-29T10:55:45;98733.41;;;15.45;100.00
17635;BME280;8936;49.010;12.120;2022-10-29T10:58:13;98728.03;;;15.55;100.00
17635;BME280;8936;49.010;12.120;2022-10-29T11:00:44;98725.38;;;16.04;100.00
17635;BME280;8936;49.010;12.120;2022-10-29T11:03:13;98712.88;;;16.18;100.00
17635;BME280;8936;49.010;12.120;2022-10-29T11:05:42;98710.56;;;16.02;100.00
17635;BME280;8936;49.010;12.120;2022-10-29T11:08:11;98714.09;;;16.02;100.00
17635;BME280;8936;49.010;12.120;2022-10-29T11:10:42;98708.50;;;15.89;100.00
17635;BME280;8936;49.010;12.120;2022-10-29T11:13:11;98705.78;;;15.89;100.00
17635;BME280;8936;49.010;12.120;2022-10-29T11:15:40;98699.63;;;15.83;100.00
17635;BME280;8936;49.010;12.120;2022-10-29T11:18:13;98694.50;;;15.82;100.00
17635;BME280;8936;49.010;12.120;2022-10-29T11:20:42;98710.94;;;15.85;100.00
17635;BME280;8936;49.010;12.120;2022-10-29T11:23:15;98707.59;;;16.03;100.00
17635;BME280;8936;49.010;12.120;2022-10-29T11:25:47;98697.81;;;16.17;100.00
17635;BME280;8936;49.010;12.120;2022-10-29T11:28:18;98698.94;;;16.11;100.00
17635;BME280;8936;49.010;12.120;2022-10-29T11:30:49;98700.19;;;16.24;100.00
17635;BME280;8936;49.010;12.120;2022-10-29T11:33:20;98696.03;;;16.42;100.00
17635;BME280;8936;49.010;12.120;2022-10-29T11:35:50;98694.31;;;16.51;100.00
17635;BME280;8936;49.010;12.120;2022-10-29T11:38:19;98686.00;;;16.47;100.00
17635;BME280;8936;49.010;12.120;2022-10-29T11:40:48;98688.13;;;16.50;100.00
17635;BME280;8936;49.010;12.120;2022-10-29T11:43:16;98682.47;;;16.52;100.00
17635;BME280;8936;49.010;12.120;2022-10-29T11:45:45;98682.75;;;16.55;100.00
17635;BME280;8936;49.010;12.120;2022-10-29T11:48:20;98682.97;;;16.54;100.00
17635;BME280;8936;49.010;12.120;2022-10-29T11:50:51;98674.28;;;16.62;100.00
17635;BME280;8936;49.010;12.120;2022-10-29T11:53:25;98667.06;;;16.57;100.00
17635;BME280;8936;49.010;12.120;2022-10-29T11:55:55;98667.09;;;16.81;100.00
17635;BME280;8936;49.010;12.120;2022-10-29T11:58:24;98670.72;;;16.71;100.00
17635;BME280;8936;49.010;12.120;2022-10-29T12:00:56;98658.84;;;16.72;100.00
17635;BME280;8936;49.010;12.120;2022-10-29T12:03:30;98653.78;;;16.90;100.00
17635;BME280;8936;49.010;12.120;2022-10-29T12:06:02;98656.41;;;17.00;100.00
17635;BME280;8936;49.010;12.120;2022-10-29T12:08:36;98656.00;;;17.11;100.00
17635;BME280;8936;49.010;12.120;2022-10-29T12:11:07;98640.84;;;17.15;100.00
17635;BME280;8936;49.010;12.120;2022-10-29T12:13:39;98648.19;;;17.10;100.00
17635;BME280;8936;49.010;12.120;2022-10-29T12:16:12;98649.25;;;17.14;100.00
17635;BME280;8936;49.010;12.120;2022-10-29T12:18:42;98638.69;;;17.17;100.00
17635;BME280;8936;49.010;12.120;2022-10-29T12:21:12;98642.84;;;17.28;100.00
17635;BME280;8936;49.010;12.120;2022-10-29T12:23:45;98642.56;;;17.30;100.00
17635;BME280;8936;49.010;12.120;2022-10-29T12:26:16;98643.66;;;17.29;100.00
17635;BME280;8936;49.010;12.120;2022-10-29T12:28:45;98636.81;;;17.37;100.00
17635;BME280;8936;49.010;12.120;2022-10-29T12:31:18;98637.00;;;17.45;100.00
17635;BME280;8936;49.010;12.120;2022-10-29T12:33:48;98644.69;;;17.57;100.00
17635;BME280;8936;49.010;12.120;2022-10-29T12:36:18;98632.00;;;17.57;100.00
17635;BME280;8936;49.010;12.120;2022-10-29T12:38:47;98637.53;;;17.66;100.00
17635;BME280;8936;49.010;12.120;2022-10-29T12:41:16;98626.97;;;17.69;100.00
17635;BME280;8936;49.010;12.120;2022-10-29T12:43:45;98639.22;;;17.62;100.00
17635;BME280;8936;49.010;12.120;2022-10-29T12:46:15;98627.97;;;17.31;100.00
17635;BME280;8936;49.010;12.120;2022-10-29T12:48:45;98624.22;;;17.51;100.00
17635;BME280;8936;49.010;12.120;2022-10-29T12:51:16;98626.59;;;17.52;100.00
17635;BME280;8936;49.010;12.120;2022-10-29T12:53:46;98613.50;;;17.64;100.00
17635;BME280;8936;49.010;12.120;2022-10-29T12:56:17;98616.38;;;17.73;100.00